AirNav   Everest Fuels
 
 583 users online  

10GA Beaverbrook Aerodrome
Griffin, Georgia, USA

GOING TO GRIFFIN?


FAA INFORMATION EFFECTIVE 02 JANUARY 2020

Location

FAA Identifier: 10GA
Lat/Long: 33-19-30.4100N 084-17-53.7240W
33-19.506833N 084-17.895400W
33.3251139,-84.2982567
(estimated)
Elevation: 910 ft. / 277 m (estimated)
Variation: 02W (1985)
From city: 5 miles N of GRIFFIN, GA
Time zone: UTC -5 (UTC -4 during Daylight Saving Time)
Zip code: 30223

Airport Operations

Airport use: Private use. Permission required prior to landing
Activation date: 01/1978
Control tower: no
ARTCC: ATLANTA CENTER
FSS: MACON FLIGHT SERVICE STATION
Attendance: MON-SAT 0800-DUSK
Wind indicator: yes
Segmented circle: no

Airport Communications

WX AWOS-3 at HMP (4 nm NW): 124.825 (770-707-1719)
WX AWOS-3 at 6A2 (6 nm S): 119.750 (770-227-3934)
WX ASOS at FFC (14 nm W): 118.525 (770-487-1610)
WX ASOS at ATL (20 nm N): PHONE 404-559-5166

Nearby radio navigation aids

VOR radial/distance  VOR name  Freq  Var
ATLr164/19.5ATLANTA VORTAC116.9005W
PDKr185/33.0PEACHTREE VOR/DME116.6005W

 
NDB name  Hdg/Dist  Freq  Var  ID
PECAT086/9.531605WFFC ..-. ..-. -.-.
COWETA COUNTY082/21.223403WEQQ . --.- --.-
ALCOVY238/31.637003WVOF ...- --- ..-.
MONROE233/37.839204WJNM .--- -. --

Airport Services

Runway Information

Runway 15/33

Dimensions: 2100 x 150 ft. / 640 x 46 m
Surface: turf, in good condition
RUNWAY 15  RUNWAY 33
Traffic pattern: leftright
Obstructions: none20 ft. pline, 500 ft. from runway

Airport Ownership and Management from official FAA records

Ownership: Privately-owned
Owner: GERALD N. BAILEY
262 MOBLEY ROAD
GRIFFIN, GA 30223
Phone 404-229-4461
Manager: GERALD N. BAILEY
262 MOBLEY ROAD
GRIFFIN, GA 30223
Phone 404-229-4461

Airport Operational Statistics

Aircraft based on the field: 7
Single engine airplanes: 7
    

Additional Remarks

A52 POLE
FOR CD CTC ATLANTA APCH AT 678-364-6131.

Instrument Procedures

There are no published instrument procedures at 10GA.

Some nearby airports with instrument procedures:

KHMP - Henry County Airport (4 nm NW)
6A2 - Griffin-Spalding County Airport (6 nm S)
KFFC - Atlanta Regional Airport-Falcon Field (14 nm W)
KATL - Hartsfield - Jackson Atlanta International Airport (20 nm N)
KOPN - Thomaston-Upson County Airport (22 nm S)
 
Loc | Ops | Rwys | IFR | FBO | Links
Com | Nav | Svcs | Stats | Notes
Area around 10GA (Beaverbrook Aerodrome)
 
Road maps at: MapQuest Bing Google
 
Aerial photo
No photo
 
Sectional chart

 
Airport distance calculator
Flying to Beaverbrook Aerodrome? Find the distance to fly.

From to 10GA

Sunrise and sunset
Times for 24-Jan-2020
 Local
(UTC-5)
 Zulu
(UTC)
Morning civil twilight07:1212:12
Sunrise07:3912:39
Sunset18:0023:00
Evening civil twilight18:2623:26

Current date and time
Zulu (UTC)  24-Jan-2020 08:16:12
Local (UTC-5)  24-Jan-2020 03:16:12
 
METAR
KHMP 
4nm NW 
240755Z AUTO 09007KT 7SM -RA BR OVC005 05/05 A3006 RMK AO2 P0005 T00540050
K6A2 
6nm S 
240755Z AUTO 00000KT 4SM BKN004 OVC007 05/05 A3003 RMK AO2
KFFC 
14nm W 
240753Z AUTO 11005KT 4SM -RA BR OVC007 07/06 A3002 RMK AO2 CIG 004V011 SLP170 P0007 T00670056
KATL 
20nm N 
240752Z 09011KT 4SM -RA BR OVC005 06/04 A3003 RMK AO2 SLP172 CIG 003V007 P0011 T00560039
TAF
KATL 
20nm N 
240548Z 2406/2512 10011KT 4SM SHRA BR OVC012 FM240700 10010KT 3SM SHRA BR OVC008 FM241200 12008KT 1SM -RA BR OVC004 FM241700 24007KT P6SM VCSH BKN008 FM241900 24007KT P6SM BKN015 FM242100 25008KT P6SM SCT050 BKN200 FM250600 29008KT P6SM BKN050
NOTAMs
Click for the latest NOTAMs
NOTAMs are issued by the DoD/FAA and will open in a separate window not controlled by AirNav.

 

 
 

Would you like to see your business listed on this page?

 If your business provides an interesting product or service to pilots, flight crews, aircraft, or users of the Beaverbrook Aerodrome, you should consider listing it here.  To start the listing process, click on the button below
 
Add a business
 

Other Pages about Beaverbrook Aerodrome

Update a link
 
Copyright © AirNav, LLC. All rights reserved. Privacy Policy  Contact